sensor_id;sensor_type;location;lat;lon;timestamp;P1;durP1;ratioP1;P2;durP2;ratioP2
44137;SDS011;29800;55.942;37.314;2024-02-28T00:01:50;9.95;;;5.25;;
44137;SDS011;29800;55.942;37.314;2024-02-28T00:04:17;13.32;;;5.20;;
44137;SDS011;29800;55.942;37.314;2024-02-28T00:06:44;13.68;;;4.97;;
44137;SDS011;29800;55.942;37.314;2024-02-28T00:09:14;22.35;;;6.55;;
44137;SDS011;29800;55.942;37.314;2024-02-28T00:11:43;16.52;;;5.05;;
44137;SDS011;29800;55.942;37.314;2024-02-28T00:14:13;15.40;;;5.57;;
44137;SDS011;29800;55.942;37.314;2024-02-28T00:16:42;13.15;;;5.15;;
44137;SDS011;29800;55.942;37.314;2024-02-28T00:19:10;16.77;;;6.15;;
44137;SDS011;29800;55.942;37.314;2024-02-28T00:21:39;15.70;;;6.95;;
44137;SDS011;29800;55.942;37.314;2024-02-28T00:24:06;16.48;;;7.90;;
44137;SDS011;29800;55.942;37.314;2024-02-28T00:26:33;14.18;;;6.85;;
44137;SDS011;29800;55.942;37.314;2024-02-28T00:29:00;13.52;;;6.57;;
44137;SDS011;29800;55.942;37.314;2024-02-28T00:31:27;11.95;;;5.78;;
44137;SDS011;29800;55.942;37.314;2024-02-28T00:33:53;16.42;;;6.43;;
44137;SDS011;29800;55.942;37.314;2024-02-28T00:36:19;15.13;;;5.78;;
44137;SDS011;29800;55.942;37.314;2024-02-28T00:38:46;15.82;;;6.80;;
44137;SDS011;29800;55.942;37.314;2024-02-28T00:41:12;12.55;;;5.88;;
44137;SDS011;29800;55.942;37.314;2024-02-28T00:43:38;13.70;;;6.05;;
44137;SDS011;29800;55.942;37.314;2024-02-28T00:46:04;16.52;;;6.93;;
44137;SDS011;29800;55.942;37.314;2024-02-28T00:48:34;15.02;;;5.82;;
44137;SDS011;29800;55.942;37.314;2024-02-28T00:51:01;14.07;;;5.80;;
44137;SDS011;29800;55.942;37.314;2024-02-28T00:53:27;14.52;;;6.68;;
44137;SDS011;29800;55.942;37.314;2024-02-28T00:55:53;13.18;;;6.03;;
44137;SDS011;29800;55.942;37.314;2024-02-28T00:58:20;17.40;;;5.72;;
44137;SDS011;29800;55.942;37.314;2024-02-28T01:00:50;12.25;;;5.18;;
44137;SDS011;29800;55.942;37.314;2024-02-28T01:03:16;15.90;;;6.88;;
44137;SDS011;29800;55.942;37.314;2024-02-28T01:05:44;12.52;;;6.30;;
44137;SDS011;29800;55.942;37.314;2024-02-28T01:08:10;16.17;;;6.00;;
44137;SDS011;29800;55.942;37.314;2024-02-28T01:10:36;15.55;;;6.10;;
44137;SDS011;29800;55.942;37.314;2024-02-28T01:13:03;12.88;;;5.30;;
44137;SDS011;29800;55.942;37.314;2024-02-28T01:15:30;13.95;;;5.68;;
44137;SDS011;29800;55.942;37.314;2024-02-28T01:17:56;14.77;;;7.03;;
44137;SDS011;29800;55.942;37.314;2024-02-28T01:20:22;17.25;;;6.90;;
44137;SDS011;29800;55.942;37.314;2024-02-28T01:22:48;18.48;;;7.70;;
44137;SDS011;29800;55.942;37.314;2024-02-28T01:25:15;12.88;;;6.63;;
44137;SDS011;29800;55.942;37.314;2024-02-28T01:27:41;15.05;;;6.65;;
44137;SDS011;29800;55.942;37.314;2024-02-28T01:30:08;14.32;;;6.40;;
44137;SDS011;29800;55.942;37.314;2024-02-28T01:32:35;21.83;;;6.25;;
44137;SDS011;29800;55.942;37.314;2024-02-28T01:35:04;12.43;;;6.82;;
44137;SDS011;29800;55.942;37.314;2024-02-28T01:37:31;17.42;;;6.60;;
44137;SDS011;29800;55.942;37.314;2024-02-28T01:39:57;17.27;;;5.70;;
44137;SDS011;29800;55.942;37.314;2024-02-28T01:42:23;18.13;;;6.68;;
44137;SDS011;29800;55.942;37.314;2024-02-28T01:44:49;16.75;;;5.20;;
44137;SDS011;29800;55.942;37.314;2024-02-28T01:47:15;15.25;;;5.63;;
44137;SDS011;29800;55.942;37.314;2024-02-28T01:49:42;16.63;;;5.72;;
44137;SDS011;29800;55.942;37.314;2024-02-28T01:52:11;14.88;;;6.45;;
44137;SDS011;29800;55.942;37.314;2024-02-28T01:54:39;13.80;;;5.88;;
44137;SDS011;29800;55.942;37.314;2024-02-28T01:57:07;16.98;;;6.72;;
44137;SDS011;29800;55.942;37.314;2024-02-28T01:59:34;13.68;;;5.85;;
44137;SDS011;29800;55.942;37.314;2024-02-28T02:02:01;17.90;;;6.00;;
44137;SDS011;29800;55.942;37.314;2024-02-28T02:04:27;15.38;;;5.30;;
44137;SDS011;29800;55.942;37.314;2024-02-28T02:06:53;12.15;;;5.35;;
44137;SDS011;29800;55.942;37.314;2024-02-28T02:09:20;17.13;;;6.00;;
44137;SDS011;29800;55.942;37.314;2024-02-28T02:11:46;16.27;;;5.60;;
44137;SDS011;29800;55.942;37.314;2024-02-28T02:14:13;11.20;;;5.20;;
44137;SDS011;29800;55.942;37.314;2024-02-28T02:16:39;13.63;;;5.38;;
44137;SDS011;29800;55.942;37.314;2024-02-28T02:19:08;16.85;;;5.75;;
44137;SDS011;29800;55.942;37.314;2024-02-28T02:21:49;13.15;;;6.15;;
44137;SDS011;29800;55.942;37.314;2024-02-28T02:24:18;17.30;;;7.75;;
44137;SDS011;29800;55.942;37.314;2024-02-28T02:26:44;20.30;;;10.05;;
44137;SDS011;29800;55.942;37.314;2024-02-28T02:29:12;26.63;;;11.05;;
44137;SDS011;29800;55.942;37.314;2024-02-28T02:31:39;33.33;;;15.93;;
44137;SDS011;29800;55.942;37.314;2024-02-28T02:34:06;29.48;;;17.25;;
44137;SDS011;29800;55.942;37.314;2024-02-28T02:36:33;36.92;;;19.90;;
44137;SDS011;29800;55.942;37.314;2024-02-28T02:38:59;36.15;;;15.10;;
44137;SDS011;29800;55.942;37.314;2024-02-28T02:41:25;30.15;;;16.38;;
44137;SDS011;29800;55.942;37.314;2024-02-28T02:43:52;31.35;;;15.77;;
44137;SDS011;29800;55.942;37.314;2024-02-28T02:46:18;23.48;;;10.80;;
44137;SDS011;29800;55.942;37.314;2024-02-28T02:48:44;22.00;;;11.18;;
44137;SDS011;29800;55.942;37.314;2024-02-28T02:51:10;21.10;;;10.25;;
44137;SDS011;29800;55.942;37.314;2024-02-28T02:53:37;30.35;;;15.45;;
44137;SDS011;29800;55.942;37.314;2024-02-28T02:56:06;32.35;;;13.88;;
44137;SDS011;29800;55.942;37.314;2024-02-28T02:58:32;38.20;;;18.48;;
44137;SDS011;29800;55.942;37.314;2024-02-28T03:00:58;35.33;;;17.75;;
44137;SDS011;29800;55.942;37.314;2024-02-28T03:03:25;29.45;;;15.50;;
44137;SDS011;29800;55.942;37.314;2024-02-28T03:05:51;28.92;;;12.38;;
44137;SDS011;29800;55.942;37.314;2024-02-28T03:08:17;26.80;;;11.30;;
44137;SDS011;29800;55.942;37.314;2024-02-28T03:10:43;27.67;;;10.07;;
44137;SDS011;29800;55.942;37.314;2024-02-28T03:13:10;27.35;;;12.50;;
44137;SDS011;29800;55.942;37.314;2024-02-28T03:15:36;32.88;;;14.32;;
44137;SDS011;29800;55.942;37.314;2024-02-28T03:18:02;64.35;;;22.52;;
44137;SDS011;29800;55.942;37.314;2024-02-28T03:20:29;57.80;;;21.50;;
44137;SDS011;29800;55.942;37.314;2024-02-28T03:22:55;60.63;;;24.75;;
44137;SDS011;29800;55.942;37.314;2024-02-28T03:25:21;41.22;;;14.52;;
44137;SDS011;29800;55.942;37.314;2024-02-28T03:27:48;45.28;;;17.02;;
44137;SDS011;29800;55.942;37.314;2024-02-28T03:30:14;49.17;;;18.65;;
44137;SDS011;29800;55.942;37.314;2024-02-28T03:32:40;26.38;;;9.32;;
44137;SDS011;29800;55.942;37.314;2024-02-28T03:35:07;27.13;;;10.10;;
44137;SDS011;29800;55.942;37.314;2024-02-28T03:37:34;25.08;;;10.35;;
44137;SDS011;29800;55.942;37.314;2024-02-28T03:40:00;20.02;;;7.55;;
44137;SDS011;29800;55.942;37.314;2024-02-28T03:42:27;25.02;;;11.07;;
44137;SDS011;29800;55.942;37.314;2024-02-28T03:44:53;19.15;;;7.53;;
44137;SDS011;29800;55.942;37.314;2024-02-28T03:47:20;25.00;;;9.25;;
44137;SDS011;29800;55.942;37.314;2024-02-28T03:49:46;25.23;;;8.93;;
44137;SDS011;29800;55.942;37.314;2024-02-28T03:52:12;18.50;;;9.25;;
44137;SDS011;29800;55.942;37.314;2024-02-28T03:54:41;21.90;;;9.52;;
44137;SDS011;29800;55.942;37.314;2024-02-28T03:57:09;21.08;;;9.45;;
44137;SDS011;29800;55.942;37.314;2024-02-28T03:59:35;24.77;;;8.98;;
44137;SDS011;29800;55.942;37.314;2024-02-28T04:02:02;23.85;;;11.75;;
44137;SDS011;29800;55.942;37.314;2024-02-28T04:04:28;15.90;;;8.52;;
44137;SDS011;29800;55.942;37.314;2024-02-28T04:06:54;19.33;;;8.98;;
44137;SDS011;29800;55.942;37.314;2024-02-28T04:09:21;26.98;;;9.80;;
44137;SDS011;29800;55.942;37.314;2024-02-28T04:11:47;24.10;;;10.00;;
44137;SDS011;29800;55.942;37.314;2024-02-28T04:14:13;16.17;;;8.05;;
44137;SDS011;29800;55.942;37.314;2024-02-28T04:16:43;20.73;;;9.57;;
44137;SDS011;29800;55.942;37.314;2024-02-28T04:19:10;21.50;;;9.65;;
44137;SDS011;29800;55.942;37.314;2024-02-28T04:21:37;22.77;;;10.30;;
44137;SDS011;29800;55.942;37.314;2024-02-28T04:24:06;45.80;;;21.95;;
44137;SDS011;29800;55.942;37.314;2024-02-28T04:26:33;33.38;;;15.77;;
44137;SDS011;29800;55.942;37.314;2024-02-28T04:28:59;25.80;;;9.60;;
44137;SDS011;29800;55.942;37.314;2024-02-28T04:31:28;20.00;;;8.18;;
44137;SDS011;29800;55.942;37.314;2024-02-28T04:33:54;25.23;;;8.52;;
44137;SDS011;29800;55.942;37.314;2024-02-28T04:36:20;24.85;;;9.07;;
44137;SDS011;29800;55.942;37.314;2024-02-28T04:38:47;25.85;;;12.30;;
44137;SDS011;29800;55.942;37.314;2024-02-28T04:41:13;20.45;;;8.77;;
44137;SDS011;29800;55.942;37.314;2024-02-28T04:43:40;19.85;;;7.75;;
44137;SDS011;29800;55.942;37.314;2024-02-28T04:46:06;20.88;;;8.07;;
44137;SDS011;29800;55.942;37.314;2024-02-28T04:48:33;19.05;;;7.82;;
44137;SDS011;29800;55.942;37.314;2024-02-28T04:51:00;49.35;;;21.38;;
44137;SDS011;29800;55.942;37.314;2024-02-28T04:53:27;18.30;;;8.38;;
44137;SDS011;29800;55.942;37.314;2024-02-28T04:55:53;19.55;;;7.82;;
44137;SDS011;29800;55.942;37.314;2024-02-28T04:58:19;23.73;;;7.93;;
44137;SDS011;29800;55.942;37.314;2024-02-28T05:00:45;18.85;;;8.32;;
44137;SDS011;29800;55.942;37.314;2024-02-28T05:03:11;89.03;;;36.00;;
44137;SDS011;29800;55.942;37.314;2024-02-28T05:05:38;43.28;;;20.33;;
44137;SDS011;29800;55.942;37.314;2024-02-28T05:08:04;25.80;;;12.75;;
44137;SDS011;29800;55.942;37.314;2024-02-28T05:10:30;17.67;;;7.85;;
44137;SDS011;29800;55.942;37.314;2024-02-28T05:12:57;15.77;;;6.88;;
44137;SDS011;29800;55.942;37.314;2024-02-28T05:15:23;18.55;;;6.93;;
44137;SDS011;29800;55.942;37.314;2024-02-28T05:17:50;28.25;;;9.80;;
44137;SDS011;29800;55.942;37.314;2024-02-28T05:20:17;20.20;;;10.23;;
44137;SDS011;29800;55.942;37.314;2024-02-28T05:22:44;22.23;;;8.90;;
44137;SDS011;29800;55.942;37.314;2024-02-28T05:25:10;24.27;;;8.55;;
44137;SDS011;29800;55.942;37.314;2024-02-28T05:27:36;15.50;;;7.47;;
44137;SDS011;29800;55.942;37.314;2024-02-28T05:30:02;15.57;;;6.35;;
44137;SDS011;29800;55.942;37.314;2024-02-28T05:32:32;23.75;;;8.25;;
44137;SDS011;29800;55.942;37.314;2024-02-28T05:34:58;18.88;;;7.93;;
44137;SDS011;29800;55.942;37.314;2024-02-28T05:37:25;16.52;;;6.47;;
44137;SDS011;29800;55.942;37.314;2024-02-28T05:39:51;14.73;;;5.65;;
44137;SDS011;29800;55.942;37.314;2024-02-28T05:42:18;18.27;;;7.00;;
44137;SDS011;29800;55.942;37.314;2024-02-28T05:44:48;26.48;;;9.98;;
44137;SDS011;29800;55.942;37.314;2024-02-28T05:47:15;17.95;;;7.53;;
44137;SDS011;29800;55.942;37.314;2024-02-28T05:49:42;15.13;;;6.80;;
44137;SDS011;29800;55.942;37.314;2024-02-28T05:52:09;17.10;;;5.97;;
44137;SDS011;29800;55.942;37.314;2024-02-28T05:54:35;18.95;;;6.43;;
44137;SDS011;29800;55.942;37.314;2024-02-28T05:57:01;19.65;;;6.97;;
44137;SDS011;29800;55.942;37.314;2024-02-28T05:59:28;29.45;;;9.90;;
44137;SDS011;29800;55.942;37.314;2024-02-28T06:01:54;20.65;;;9.10;;
44137;SDS011;29800;55.942;37.314;2024-02-28T06:04:20;19.27;;;8.40;;
44137;SDS011;29800;55.942;37.314;2024-02-28T06:06:46;18.98;;;7.90;;
44137;SDS011;29800;55.942;37.314;2024-02-28T06:09:14;25.30;;;8.48;;
44137;SDS011;29800;55.942;37.314;2024-02-28T06:11:40;19.88;;;8.25;;
44137;SDS011;29800;55.942;37.314;2024-02-28T06:14:07;19.17;;;8.55;;
44137;SDS011;29800;55.942;37.314;2024-02-28T06:16:33;18.70;;;8.30;;
44137;SDS011;29800;55.942;37.314;2024-02-28T06:18:59;21.00;;;8.70;;
44137;SDS011;29800;55.942;37.314;2024-02-28T06:21:25;22.70;;;6.88;;
44137;SDS011;29800;55.942;37.314;2024-02-28T06:23:52;19.27;;;7.85;;
44137;SDS011;29800;55.942;37.314;2024-02-28T06:26:18;16.55;;;6.97;;
44137;SDS011;29800;55.942;37.314;2024-02-28T06:28:45;20.25;;;7.85;;
44137;SDS011;29800;55.942;37.314;2024-02-28T06:31:15;18.05;;;6.88;;
44137;SDS011;29800;55.942;37.314;2024-02-28T06:33:42;17.00;;;7.10;;
44137;SDS011;29800;55.942;37.314;2024-02-28T06:36:09;14.40;;;6.80;;
44137;SDS011;29800;55.942;37.314;2024-02-28T06:38:35;20.42;;;6.63;;
44137;SDS011;29800;55.942;37.314;2024-02-28T06:41:04;16.25;;;7.38;;
44137;SDS011;29800;55.942;37.314;2024-02-28T06:43:34;24.48;;;7.40;;
44137;SDS011;29800;55.942;37.314;2024-02-28T06:46:03;21.35;;;8.18;;
44137;SDS011;29800;55.942;37.314;2024-02-28T06:48:30;17.58;;;7.05;;
44137;SDS011;29800;55.942;37.314;2024-02-28T06:50:56;20.98;;;7.05;;
44137;SDS011;29800;55.942;37.314;2024-02-28T06:53:23;18.05;;;7.95;;
44137;SDS011;29800;55.942;37.314;2024-02-28T06:55:49;15.30;;;6.50;;
44137;SDS011;29800;55.942;37.314;2024-02-28T06:58:16;23.20;;;7.55;;
44137;SDS011;29800;55.942;37.314;2024-02-28T07:00:42;16.63;;;6.90;;
44137;SDS011;29800;55.942;37.314;2024-02-28T07:03:08;15.00;;;7.10;;
44137;SDS011;29800;55.942;37.314;2024-02-28T07:05:35;21.33;;;7.18;;
44137;SDS011;29800;55.942;37.314;2024-02-28T07:08:01;18.38;;;7.95;;
44137;SDS011;29800;55.942;37.314;2024-02-28T07:10:27;23.50;;;7.60;;
44137;SDS011;29800;55.942;37.314;2024-02-28T07:12:53;17.77;;;7.07;;
44137;SDS011;29800;55.942;37.314;2024-02-28T07:15:20;17.83;;;6.78;;
44137;SDS011;29800;55.942;37.314;2024-02-28T07:17:47;19.52;;;7.78;;
44137;SDS011;29800;55.942;37.314;2024-02-28T07:20:13;21.83;;;11.25;;
44137;SDS011;29800;55.942;37.314;2024-02-28T07:22:41;19.38;;;7.80;;
44137;SDS011;29800;55.942;37.314;2024-02-28T07:25:08;17.77;;;7.22;;
44137;SDS011;29800;55.942;37.314;2024-02-28T07:27:34;14.73;;;7.38;;
44137;SDS011;29800;55.942;37.314;2024-02-28T07:30:01;17.45;;;6.72;;
44137;SDS011;29800;55.942;37.314;2024-02-28T07:32:30;14.02;;;6.68;;
44137;SDS011;29800;55.942;37.314;2024-02-28T07:35:01;15.50;;;6.35;;
44137;SDS011;29800;55.942;37.314;2024-02-28T07:37:30;14.70;;;6.00;;
44137;SDS011;29800;55.942;37.314;2024-02-28T07:39:56;20.90;;;7.45;;
44137;SDS011;29800;55.942;37.314;2024-02-28T07:42:23;16.42;;;6.68;;
44137;SDS011;29800;55.942;37.314;2024-02-28T07:44:49;20.85;;;6.90;;
44137;SDS011;29800;55.942;37.314;2024-02-28T07:47:19;21.00;;;11.05;;
44137;SDS011;29800;55.942;37.314;2024-02-28T07:49:54;16.85;;;6.97;;
44137;SDS011;29800;55.942;37.314;2024-02-28T07:52:21;17.13;;;7.28;;
44137;SDS011;29800;55.942;37.314;2024-02-28T07:54:47;20.27;;;7.00;;
44137;SDS011;29800;55.942;37.314;2024-02-28T07:57:14;18.75;;;7.10;;
44137;SDS011;29800;55.942;37.314;2024-02-28T07:59:43;14.88;;;7.07;;
44137;SDS011;29800;55.942;37.314;2024-02-28T08:02:10;22.73;;;8.43;;
44137;SDS011;29800;55.942;37.314;2024-02-28T08:04:38;20.17;;;6.90;;
44137;SDS011;29800;55.942;37.314;2024-02-28T08:07:05;17.38;;;6.57;;
44137;SDS011;29800;55.942;37.314;2024-02-28T08:09:32;14.50;;;6.38;;
44137;SDS011;29800;55.942;37.314;2024-02-28T08:11:58;19.20;;;6.20;;
44137;SDS011;29800;55.942;37.314;2024-02-28T08:14:24;15.85;;;6.25;;
44137;SDS011;29800;55.942;37.314;2024-02-28T08:16:51;17.85;;;7.10;;
44137;SDS011;29800;55.942;37.314;2024-02-28T08:19:18;17.33;;;6.38;;
44137;SDS011;29800;55.942;37.314;2024-02-28T08:21:44;18.95;;;6.80;;
44137;SDS011;29800;55.942;37.314;2024-02-28T08:24:10;15.95;;;6.85;;
44137;SDS011;29800;55.942;37.314;2024-02-28T08:26:36;13.82;;;6.15;;
44137;SDS011;29800;55.942;37.314;2024-02-28T08:29:04;26.25;;;7.20;;
44137;SDS011;29800;55.942;37.314;2024-02-28T08:31:30;19.73;;;7.30;;
44137;SDS011;29800;55.942;37.314;2024-02-28T08:33:56;18.63;;;7.78;;
44137;SDS011;29800;55.942;37.314;2024-02-28T08:36:23;19.08;;;8.73;;
44137;SDS011;29800;55.942;37.314;2024-02-28T08:38:49;16.08;;;7.35;;
44137;SDS011;29800;55.942;37.314;2024-02-28T08:41:17;22.77;;;7.55;;
44137;SDS011;29800;55.942;37.314;2024-02-28T08:43:44;24.05;;;9.25;;
44137;SDS011;29800;55.942;37.314;2024-02-28T08:46:13;14.55;;;6.93;;
44137;SDS011;29800;55.942;37.314;2024-02-28T08:48:40;21.17;;;8.98;;
44137;SDS011;29800;55.942;37.314;2024-02-28T08:51:06;23.52;;;7.60;;
44137;SDS011;29800;55.942;37.314;2024-02-28T08:53:33;16.60;;;7.40;;
44137;SDS011;29800;55.942;37.314;2024-02-28T08:55:59;14.90;;;8.02;;
44137;SDS011;29800;55.942;37.314;2024-02-28T08:58:25;23.85;;;8.70;;
44137;SDS011;29800;55.942;37.314;2024-02-28T09:00:51;33.97;;;12.88;;
44137;SDS011;29800;55.942;37.314;2024-02-28T09:03:18;32.40;;;12.15;;
44137;SDS011;29800;55.942;37.314;2024-02-28T09:05:45;25.45;;;11.23;;
44137;SDS011;29800;55.942;37.314;2024-02-28T09:08:11;20.33;;;9.95;;
44137;SDS011;29800;55.942;37.314;2024-02-28T09:10:37;28.30;;;10.77;;
44137;SDS011;29800;55.942;37.314;2024-02-28T09:13:03;18.70;;;9.38;;
44137;SDS011;29800;55.942;37.314;2024-02-28T09:15:29;19.23;;;8.38;;
44137;SDS011;29800;55.942;37.314;2024-02-28T09:17:56;20.48;;;9.27;;
44137;SDS011;29800;55.942;37.314;2024-02-28T09:20:22;19.17;;;8.65;;
44137;SDS011;29800;55.942;37.314;2024-02-28T09:22:48;23.88;;;9.68;;
44137;SDS011;29800;55.942;37.314;2024-02-28T09:25:15;23.95;;;10.25;;
44137;SDS011;29800;55.942;37.314;2024-02-28T09:27:44;23.77;;;10.60;;
44137;SDS011;29800;55.942;37.314;2024-02-28T09:30:10;19.45;;;10.05;;
44137;SDS011;29800;55.942;37.314;2024-02-28T09:32:36;18.80;;;8.65;;
44137;SDS011;29800;55.942;37.314;2024-02-28T09:35:03;16.38;;;7.38;;
44137;SDS011;29800;55.942;37.314;2024-02-28T09:37:30;21.10;;;8.65;;
44137;SDS011;29800;55.942;37.314;2024-02-28T09:39:57;21.30;;;8.90;;
44137;SDS011;29800;55.942;37.314;2024-02-28T09:42:24;23.52;;;9.68;;
44137;SDS011;29800;55.942;37.314;2024-02-28T09:44:50;24.75;;;9.45;;
44137;SDS011;29800;55.942;37.314;2024-02-28T09:47:16;27.88;;;10.40;;
44137;SDS011;29800;55.942;37.314;2024-02-28T09:49:42;29.38;;;10.45;;
44137;SDS011;29800;55.942;37.314;2024-02-28T09:52:16;26.70;;;11.07;;
44137;SDS011;29800;55.942;37.314;2024-02-28T09:54:42;31.85;;;9.13;;
44137;SDS011;29800;55.942;37.314;2024-02-28T09:57:10;30.60;;;10.00;;
44137;SDS011;29800;55.942;37.314;2024-02-28T09:59:37;26.20;;;9.68;;
44137;SDS011;29800;55.942;37.314;2024-02-28T10:02:06;21.98;;;8.95;;
44137;SDS011;29800;55.942;37.314;2024-02-28T10:04:37;20.42;;;8.48;;
44137;SDS011;29800;55.942;37.314;2024-02-28T10:07:11;25.83;;;9.07;;
44137;SDS011;29800;55.942;37.314;2024-02-28T10:09:39;21.90;;;9.40;;
44137;SDS011;29800;55.942;37.314;2024-02-28T10:12:06;35.50;;;15.65;;
44137;SDS011;29800;55.942;37.314;2024-02-28T10:14:32;30.90;;;12.25;;
44137;SDS011;29800;55.942;37.314;2024-02-28T10:16:59;24.83;;;9.15;;
44137;SDS011;29800;55.942;37.314;2024-02-28T10:19:25;23.90;;;9.07;;
44137;SDS011;29800;55.942;37.314;2024-02-28T10:21:52;20.73;;;8.43;;
44137;SDS011;29800;55.942;37.314;2024-02-28T10:24:18;28.67;;;9.48;;
44137;SDS011;29800;55.942;37.314;2024-02-28T10:26:45;22.15;;;8.40;;
44137;SDS011;29800;55.942;37.314;2024-02-28T10:29:24;20.60;;;8.57;;
44137;SDS011;29800;55.942;37.314;2024-02-28T10:31:51;21.30;;;9.52;;
44137;SDS011;29800;55.942;37.314;2024-02-28T10:34:17;24.48;;;9.82;;
44137;SDS011;29800;55.942;37.314;2024-02-28T10:36:47;17.45;;;7.95;;
44137;SDS011;29800;55.942;37.314;2024-02-28T10:39:13;28.98;;;11.30;;
44137;SDS011;29800;55.942;37.314;2024-02-28T10:41:40;22.33;;;7.38;;
44137;SDS011;29800;55.942;37.314;2024-02-28T10:44:08;23.55;;;8.43;;
44137;SDS011;29800;55.942;37.314;2024-02-28T10:46:37;19.35;;;8.88;;
44137;SDS011;29800;55.942;37.314;2024-02-28T10:49:08;25.67;;;9.75;;
44137;SDS011;29800;55.942;37.314;2024-02-28T10:51:37;22.90;;;9.25;;
44137;SDS011;29800;55.942;37.314;2024-02-28T10:56:34;21.63;;;8.23;;
44137;SDS011;29800;55.942;37.314;2024-02-28T10:59:01;19.85;;;8.00;;
44137;SDS011;29800;55.942;37.314;2024-02-28T11:01:27;25.30;;;8.57;;
44137;SDS011;29800;55.942;37.314;2024-02-28T11:03:54;20.52;;;7.93;;
44137;SDS011;29800;55.942;37.314;2024-02-28T11:06:21;21.10;;;7.63;;
44137;SDS011;29800;55.942;37.314;2024-02-28T11:08:48;18.58;;;7.95;;
44137;SDS011;29800;55.942;37.314;2024-02-28T11:11:18;20.65;;;8.20;;
44137;SDS011;29800;55.942;37.314;2024-02-28T11:13:55;28.52;;;8.57;;
44137;SDS011;29800;55.942;37.314;2024-02-28T11:16:34;27.92;;;8.93;;
44137;SDS011;29800;55.942;37.314;2024-02-28T11:19:02;29.45;;;10.38;;
44137;SDS011;29800;55.942;37.314;2024-02-28T11:21:33;23.17;;;9.00;;
44137;SDS011;29800;55.942;37.314;2024-02-28T11:24:01;23.52;;;8.50;;
44137;SDS011;29800;55.942;37.314;2024-02-28T11:26:29;20.58;;;8.23;;
44137;SDS011;29800;55.942;37.314;2024-02-28T11:28:56;26.48;;;7.88;;
44137;SDS011;29800;55.942;37.314;2024-02-28T11:31:22;26.40;;;10.10;;
44137;SDS011;29800;55.942;37.314;2024-02-28T11:33:48;26.63;;;8.10;;
44137;SDS011;29800;55.942;37.314;2024-02-28T11:36:15;20.88;;;7.60;;
44137;SDS011;29800;55.942;37.314;2024-02-28T11:38:41;21.27;;;8.07;;
44137;SDS011;29800;55.942;37.314;2024-02-28T11:41:07;22.15;;;8.10;;
44137;SDS011;29800;55.942;37.314;2024-02-28T11:43:34;24.25;;;8.05;;
44137;SDS011;29800;55.942;37.314;2024-02-28T11:46:01;21.77;;;8.23;;
44137;SDS011;29800;55.942;37.314;2024-02-28T11:48:28;22.48;;;7.97;;
44137;SDS011;29800;55.942;37.314;2024-02-28T11:50:54;16.80;;;7.65;;
44137;SDS011;29800;55.942;37.314;2024-02-28T11:53:24;22.75;;;7.55;;
44137;SDS011;29800;55.942;37.314;2024-02-28T11:55:54;22.10;;;7.80;;
44137;SDS011;29800;55.942;37.314;2024-02-28T11:58:21;27.70;;;8.45;;
44137;SDS011;29800;55.942;37.314;2024-02-28T12:00:49;24.63;;;9.15;;
44137;SDS011;29800;55.942;37.314;2024-02-28T12:03:25;19.38;;;7.70;;
44137;SDS011;29800;55.942;37.314;2024-02-28T12:05:52;23.83;;;8.07;;
44137;SDS011;29800;55.942;37.314;2024-02-28T12:08:22;21.20;;;7.97;;
44137;SDS011;29800;55.942;37.314;2024-02-28T12:10:48;21.70;;;7.35;;
44137;SDS011;29800;55.942;37.314;2024-02-28T12:13:17;19.27;;;8.50;;
44137;SDS011;29800;55.942;37.314;2024-02-28T12:15:44;17.83;;;7.35;;
44137;SDS011;29800;55.942;37.314;2024-02-28T12:18:11;20.58;;;8.45;;
44137;SDS011;29800;55.942;37.314;2024-02-28T12:20:37;20.73;;;7.78;;
44137;SDS011;29800;55.942;37.314;2024-02-28T12:23:04;22.45;;;8.13;;
44137;SDS011;29800;55.942;37.314;2024-02-28T12:25:31;23.38;;;8.15;;
44137;SDS011;29800;55.942;37.314;2024-02-28T12:27:57;18.80;;;7.82;;
44137;SDS011;29800;55.942;37.314;2024-02-28T12:30:24;23.45;;;8.48;;
44137;SDS011;29800;55.942;37.314;2024-02-28T12:32:52;21.70;;;7.78;;
44137;SDS011;29800;55.942;37.314;2024-02-28T12:35:18;25.83;;;7.63;;
44137;SDS011;29800;55.942;37.314;2024-02-28T12:37:46;19.85;;;7.10;;
44137;SDS011;29800;55.942;37.314;2024-02-28T12:40:14;23.40;;;8.07;;
44137;SDS011;29800;55.942;37.314;2024-02-28T12:42:43;23.20;;;7.68;;
44137;SDS011;29800;55.942;37.314;2024-02-28T12:45:10;19.75;;;7.25;;
44137;SDS011;29800;55.942;37.314;2024-02-28T12:47:36;22.17;;;7.80;;
44137;SDS011;29800;55.942;37.314;2024-02-28T12:50:03;25.02;;;8.13;;
44137;SDS011;29800;55.942;37.314;2024-02-28T12:52:29;20.65;;;7.85;;
44137;SDS011;29800;55.942;37.314;2024-02-28T12:54:56;23.33;;;8.18;;
44137;SDS011;29800;55.942;37.314;2024-02-28T12:57:22;20.45;;;8.07;;
44137;SDS011;29800;55.942;37.314;2024-02-28T12:59:48;22.35;;;7.53;;
44137;SDS011;29800;55.942;37.314;2024-02-28T13:02:14;18.83;;;7.88;;
44137;SDS011;29800;55.942;37.314;2024-02-28T13:04:41;16.98;;;6.97;;
44137;SDS011;29800;55.942;37.314;2024-02-28T13:07:07;21.60;;;7.88;;
44137;SDS011;29800;55.942;37.314;2024-02-28T13:09:34;22.63;;;9.82;;
44137;SDS011;29800;55.942;37.314;2024-02-28T13:12:00;33.22;;;13.95;;
44137;SDS011;29800;55.942;37.314;2024-02-28T13:14:27;25.58;;;8.77;;
44137;SDS011;29800;55.942;37.314;2024-02-28T13:16:53;19.15;;;7.78;;
44137;SDS011;29800;55.942;37.314;2024-02-28T13:19:20;24.85;;;8.07;;
44137;SDS011;29800;55.942;37.314;2024-02-28T13:21:46;29.67;;;9.73;;
44137;SDS011;29800;55.942;37.314;2024-02-28T13:24:13;21.25;;;8.32;;
44137;SDS011;29800;55.942;37.314;2024-02-28T13:26:40;23.90;;;8.68;;
44137;SDS011;29800;55.942;37.314;2024-02-28T13:29:07;21.02;;;8.80;;
44137;SDS011;29800;55.942;37.314;2024-02-28T13:31:34;28.98;;;9.85;;
44137;SDS011;29800;55.942;37.314;2024-02-28T13:34:01;25.98;;;9.40;;
44137;SDS011;29800;55.942;37.314;2024-02-28T13:36:29;31.75;;;8.65;;
44137;SDS011;29800;55.942;37.314;2024-02-28T13:38:58;18.98;;;8.18;;
44137;SDS011;29800;55.942;37.314;2024-02-28T13:41:24;21.63;;;8.02;;
44137;SDS011;29800;55.942;37.314;2024-02-28T13:43:50;17.75;;;7.30;;
44137;SDS011;29800;55.942;37.314;2024-02-28T13:46:17;28.23;;;7.68;;
44137;SDS011;29800;55.942;37.314;2024-02-28T13:48:45;26.05;;;7.88;;
44137;SDS011;29800;55.942;37.314;2024-02-28T13:51:12;29.13;;;9.38;;
44137;SDS011;29800;55.942;37.314;2024-02-28T13:53:38;27.45;;;8.38;;
44137;SDS011;29800;55.942;37.314;2024-02-28T13:56:04;26.50;;;9.65;;
44137;SDS011;29800;55.942;37.314;2024-02-28T13:58:31;24.45;;;8.35;;
44137;SDS011;29800;55.942;37.314;2024-02-28T14:00:57;19.00;;;7.35;;
44137;SDS011;29800;55.942;37.314;2024-02-28T14:03:24;30.13;;;7.97;;
44137;SDS011;29800;55.942;37.314;2024-02-28T14:05:51;31.25;;;11.13;;
44137;SDS011;29800;55.942;37.314;2024-02-28T14:08:18;39.05;;;15.52;;
44137;SDS011;29800;55.942;37.314;2024-02-28T14:10:44;29.48;;;9.68;;
44137;SDS011;29800;55.942;37.314;2024-02-28T14:13:10;24.52;;;8.23;;
44137;SDS011;29800;55.942;37.314;2024-02-28T14:15:38;18.00;;;7.40;;
44137;SDS011;29800;55.942;37.314;2024-02-28T14:18:04;18.15;;;7.30;;
44137;SDS011;29800;55.942;37.314;2024-02-28T14:20:31;21.25;;;7.93;;